Time;durP1;ratioP1;P1;durP2;ratioP2;P2;SDS_P1;SDS_P2;PMS_P1;PMS_P2;Temp;Humidity;BMP_temperature;BMP_pressure;BME280_temperature;BME280_humidity;BME280_pressure;Samples;Min_cycle;Max_cycle;Signal;HPM_P1;HPM_P2
2021/10/12 00:01:59;;;;;;;18.30;15.73;;;;;;;7.01;100.00;100234.97;5094086;28;20537;-76
2021/10/12 00:04:26;;;;;;;20.33;16.35;;;;;;;6.99;100.00;100228.81;5095571;28;20294;-76
2021/10/12 00:06:53;;;;;;;22.42;15.60;;;;;;;7.00;100.00;100228.75;5095656;28;20219;-76
2021/10/12 00:09:20;;;;;;;22.15;17.67;;;;;;;7.15;100.00;100218.47;5095847;28;20203;-75
2021/10/12 00:11:46;;;;;;;20.40;15.80;;;;;;;7.09;100.00;100219.53;5079275;28;20199;-76
2021/10/12 00:14:14;;;;;;;23.92;17.83;;;;;;;7.16;100.00;100220.22;5096535;28;20275;-75
2021/10/12 00:16:41;;;;;;;22.98;17.17;;;;;;;7.24;100.00;100219.03;5096043;28;20546;-75
2021/10/12 00:19:07;;;;;;;22.95;17.55;;;;;;;7.16;100.00;100228.25;5098373;28;20196;-76
2021/10/12 00:21:34;;;;;;;20.10;16.35;;;;;;;7.14;100.00;100214.03;5086313;28;20227;-76
2021/10/12 00:24:03;;;;;;;23.40;16.92;;;;;;;7.15;100.00;100224.69;5105838;28;20216;-76
2021/10/12 00:26:29;;;;;;;20.30;17.20;;;;;;;7.17;100.00;100219.28;5104638;28;20216;-76
2021/10/12 00:28:56;;;;;;;24.52;18.27;;;;;;;7.24;100.00;100234.22;5078294;28;20322;-75
2021/10/12 00:31:24;;;;;;;22.38;17.15;;;;;;;7.24;100.00;100231.53;5075480;28;20191;-76
2021/10/12 00:33:51;;;;;;;24.40;18.05;;;;;;;7.41;100.00;100210.38;5083844;28;20287;-74
2021/10/12 00:36:17;;;;;;;21.83;17.45;;;;;;;7.64;100.00;100197.97;5095110;28;20278;-75
2021/10/12 00:38:44;;;;;;;25.85;15.95;;;;;;;7.59;100.00;100207.97;5095385;28;20200;-75
2021/10/12 00:41:10;;;;;;;22.92;16.63;;;;;;;7.30;100.00;100213.47;5081152;28;20279;-75
2021/10/12 00:43:37;;;;;;;21.73;17.20;;;;;;;7.26;100.00;100205.59;5088929;28;20561;-75
2021/10/12 00:46:05;;;;;;;23.15;16.80;;;;;;;7.31;100.00;100199.13;5091192;28;20275;-75
2021/10/12 00:48:33;;;;;;;22.98;17.42;;;;;;;7.43;100.00;100179.06;5096200;28;20251;-75
2021/10/12 00:51:00;;;;;;;25.23;16.85;;;;;;;7.60;100.00;100199.91;5089322;28;20223;-75
2021/10/12 00:53:27;;;;;;;17.95;15.90;;;;;;;7.52;100.00;100210.00;5099560;28;20200;-75
2021/10/12 00:55:53;;;;;;;19.95;16.70;;;;;;;7.54;100.00;100200.09;5099236;28;20630;-75
2021/10/12 00:58:20;;;;;;;19.52;15.88;;;;;;;7.68;100.00;100194.25;5099312;28;20192;-75
2021/10/12 01:00:46;;;;;;;19.00;15.63;;;;;;;7.50;100.00;100175.22;5099399;28;20490;-75
2021/10/12 01:03:13;;;;;;;21.10;16.65;;;;;;;7.55;100.00;100169.69;5103376;28;20198;-76
2021/10/12 01:05:41;;;;;;;19.63;14.88;;;;;;;7.62;100.00;100167.66;5110262;28;20227;-76
2021/10/12 01:08:08;;;;;;;20.52;16.40;;;;;;;7.64;100.00;100169.38;5109977;28;20239;-76
2021/10/12 01:10:35;;;;;;;22.15;15.98;;;;;;;7.50;100.00;100175.22;5108837;28;20256;-76
2021/10/12 01:13:03;;;;;;;20.73;16.00;;;;;;;7.53;100.00;100171.56;5109107;28;20281;-76
2021/10/12 01:15:32;;;;;;;24.27;16.40;;;;;;;7.49;100.00;100168.13;5108730;28;20192;-76
2021/10/12 01:17:58;;;;;;;18.67;14.48;;;;;;;7.49;100.00;100165.44;5109815;28;20621;-76
2021/10/12 01:20:26;;;;;;;22.33;16.10;;;;;;;7.52;100.00;100159.09;5110062;28;20214;-76
2021/10/12 01:22:55;;;;;;;18.05;14.65;;;;;;;7.53;100.00;100158.19;5110225;28;20287;-76
2021/10/12 01:25:22;;;;;;;20.67;14.27;;;;;;;7.50;100.00;100152.91;5110592;28;20194;-76
2021/10/12 01:27:49;;;;;;;21.67;15.65;;;;;;;7.42;100.00;100155.88;5110213;28;20200;-76
2021/10/12 01:30:15;;;;;;;20.35;14.50;;;;;;;7.24;100.00;100154.75;5109952;28;20262;-76
2021/10/12 01:32:45;;;;;;;21.55;15.50;;;;;;;7.36;100.00;100144.50;5110924;28;20271;-76
2021/10/12 01:35:12;;;;;;;21.85;15.48;;;;;;;7.27;100.00;100140.34;5105575;28;20280;-76
2021/10/12 01:37:39;;;;;;;20.85;15.48;;;;;;;7.24;100.00;100141.34;5097485;28;20252;-76
2021/10/12 01:40:10;;;;;;;20.63;17.08;;;;;;;7.24;100.00;100145.84;5095838;28;20271;-76
2021/10/12 01:42:36;;;;;;;21.67;16.42;;;;;;;7.27;100.00;100140.34;5109441;28;20280;-76
2021/10/12 01:45:06;;;;;;;18.90;15.15;;;;;;;7.21;100.00;100145.91;5102351;28;20223;-76
2021/10/12 01:47:33;;;;;;;20.15;15.43;;;;;;;7.40;100.00;100138.13;5106377;28;20293;-76
2021/10/12 01:49:59;;;;;;;18.52;14.30;;;;;;;7.32;100.00;100144.59;5097963;28;20200;-76
2021/10/12 01:52:26;;;;;;;21.73;14.70;;;;;;;7.47;100.00;100139.63;5102219;28;20212;-76
2021/10/12 01:54:53;;;;;;;18.95;15.00;;;;;;;7.61;100.00;100133.75;5109158;28;20203;-76
2021/10/12 01:57:21;;;;;;;19.58;13.07;;;;;;;7.58;100.00;100128.53;5103740;28;20215;-76
2021/10/12 01:59:48;;;;;;;18.23;14.45;;;;;;;7.65;100.00;100122.88;5095750;28;20192;-76
2021/10/12 02:02:14;;;;;;;17.77;14.68;;;;;;;7.66;100.00;100113.88;5089592;28;20220;-76
2021/10/12 02:04:41;;;;;;;18.17;13.73;;;;;;;7.63;100.00;100105.97;5087772;28;20255;-75
2021/10/12 02:07:08;;;;;;;18.90;13.57;;;;;;;7.60;100.00;100108.78;5089497;28;20239;-75
2021/10/12 02:09:35;;;;;;;16.98;13.70;;;;;;;7.83;100.00;100104.34;5098545;28;20196;-75
2021/10/12 02:12:02;;;;;;;16.73;13.45;;;;;;;7.86;100.00;100089.00;5086619;28;20711;-76
2021/10/12 02:14:30;;;;;;;19.05;14.13;;;;;;;7.78;100.00;100088.44;5091757;28;20186;-76
2021/10/12 02:16:56;;;;;;;16.73;12.73;;;;;;;7.88;100.00;100086.25;5087652;28;20279;-76
2021/10/12 02:19:23;;;;;;;20.08;14.40;;;;;;;7.80;100.00;100086.56;5083712;28;20203;-75
2021/10/12 02:21:50;;;;;;;19.80;15.00;;;;;;;7.82;100.00;100070.41;5079326;28;20191;-76
2021/10/12 02:24:16;;;;;;;17.00;14.15;;;;;;;7.75;100.00;100068.91;5089467;28;20202;-76
2021/10/12 02:26:43;;;;;;;19.95;14.85;;;;;;;7.70;100.00;100064.59;5080019;28;20200;-76
2021/10/12 02:29:09;;;;;;;19.23;14.63;;;;;;;7.62;100.00;100071.16;5100239;28;20307;-74
2021/10/12 02:31:37;;;;;;;17.17;14.30;;;;;;;7.60;100.00;100073.03;5101733;28;20219;-75
2021/10/12 02:34:04;;;;;;;19.75;14.48;;;;;;;7.93;100.00;100077.09;5089521;28;20260;-76
2021/10/12 02:36:31;;;;;;;22.67;16.38;;;;;;;8.00;100.00;100072.34;5089132;28;20274;-75
2021/10/12 02:38:58;;;;;;;20.52;16.70;;;;;;;8.08;100.00;100061.34;5085221;28;20193;-75
2021/10/12 02:41:24;;;;;;;18.23;14.50;;;;;;;8.32;98.73;100046.00;5090743;28;20192;-75
2021/10/12 02:43:51;;;;;;;19.08;15.15;;;;;;;8.17;99.41;100030.59;5097290;28;20185;-75
2021/10/12 02:46:18;;;;;;;21.70;16.08;;;;;;;8.25;98.80;100033.81;5100392;28;20275;-75
2021/10/12 02:48:47;;;;;;;20.13;16.45;;;;;;;8.10;100.00;100041.56;5107915;28;20285;-76
2021/10/12 02:51:14;;;;;;;23.38;16.05;;;;;;;8.30;99.35;100054.16;5103897;28;20212;-76
2021/10/12 02:53:41;;;;;;;21.83;16.30;;;;;;;8.26;98.72;100062.38;5105945;28;20279;-76
2021/10/12 02:56:07;;;;;;;21.48;16.85;;;;;;;8.24;99.80;100051.72;5096913;28;20284;-76
2021/10/12 02:58:34;;;;;;;20.42;17.17;;;;;;;8.38;98.77;100053.81;5102930;28;20256;-75
2021/10/12 03:01:01;;;;;;;18.60;15.43;;;;;;;8.46;98.20;100050.88;5100094;28;20215;-76
2021/10/12 03:03:28;;;;;;;19.27;15.68;;;;;;;8.52;97.38;100053.28;5089529;28;20213;-76
2021/10/12 03:05:55;;;;;;;21.52;16.40;;;;;;;8.52;97.51;100051.47;5093858;28;20209;-76
2021/10/12 03:08:22;;;;;;;20.50;16.55;;;;;;;8.49;97.87;100051.59;5104569;28;20245;-76
2021/10/12 03:10:49;;;;;;;18.58;15.40;;;;;;;8.62;97.50;100051.94;5106560;28;20524;-76
2021/10/12 03:13:15;;;;;;;19.42;15.45;;;;;;;8.62;96.84;100045.72;5106646;28;20303;-74
2021/10/12 03:15:43;;;;;;;18.80;16.77;;;;;;;8.49;97.73;100040.84;5101454;28;20197;-75
2021/10/12 03:18:10;;;;;;;18.05;14.88;;;;;;;8.74;96.26;100035.31;5079168;28;20191;-76
2021/10/12 03:20:36;;;;;;;18.65;16.20;;;;;;;8.79;94.90;100029.72;5075082;28;20269;-75
2021/10/12 03:23:04;;;;;;;17.35;14.63;;;;;;;8.63;95.63;100024.16;5081750;28;20284;-75
2021/10/12 03:25:31;;;;;;;17.08;15.10;;;;;;;8.73;95.37;100030.88;5083445;28;20200;-75
2021/10/12 03:27:57;;;;;;;16.90;14.70;;;;;;;8.75;95.09;100020.06;5077266;28;20804;-76
2021/10/12 03:30:24;;;;;;;21.30;15.45;;;;;;;8.77;95.59;100018.19;5089108;28;20229;-75
2021/10/12 03:32:51;;;;;;;18.10;14.70;;;;;;;8.65;96.20;100026.78;5095429;28;20221;-76
2021/10/12 03:35:25;;;;;;;19.55;15.55;;;;;;;8.35;98.73;100022.63;5077572;28;20186;-76
2021/10/12 03:37:52;;;;;;;21.23;16.63;;;;;;;8.46;99.17;100021.34;5076257;28;20528;-76
2021/10/12 03:40:20;;;;;;;21.67;16.05;;;;;;;8.60;98.95;100023.44;5091382;28;20204;-76
2021/10/12 03:42:46;;;;;;;19.10;16.05;;;;;;;8.40;99.84;100027.84;5096314;28;20263;-74
2021/10/12 03:45:13;;;;;;;21.25;17.25;;;;;;;8.60;98.82;100023.44;5092805;28;20303;-75
2021/10/12 03:47:39;;;;;;;19.65;16.55;;;;;;;8.55;98.92;100031.69;5091821;28;20213;-75
2021/10/12 03:50:07;;;;;;;24.80;18.20;;;;;;;8.58;100.00;100030.69;5090371;28;20632;-74
2021/10/12 03:52:34;;;;;;;19.90;16.50;;;;;;;8.62;100.00;100026.94;5088590;28;20205;-75
2021/10/12 03:55:00;;;;;;;21.95;16.88;;;;;;;8.54;99.33;100035.28;5095564;28;20295;-75
2021/10/12 03:57:28;;;;;;;20.70;16.55;;;;;;;8.55;99.35;100035.25;5094379;28;20281;-76
2021/10/12 03:59:55;;;;;;;19.10;16.98;;;;;;;8.52;100.00;100030.00;5084153;28;20196;-75
2021/10/12 04:02:22;;;;;;;24.10;17.77;;;;;;;8.59;100.00;100022.53;5095629;28;20209;-75
2021/10/12 04:04:48;;;;;;;19.20;16.15;;;;;;;8.94;97.93;100017.44;5096654;28;20680;-75
2021/10/12 04:07:15;;;;;;;20.25;16.90;;;;;;;9.04;96.19;100012.53;5105858;28;20225;-76
2021/10/12 04:09:41;;;;;;;18.52;16.05;;;;;;;9.02;95.11;100009.91;5100077;28;20246;-76
2021/10/12 04:12:08;;;;;;;19.67;15.70;;;;;;;9.10;94.99;100012.25;5087452;28;20240;-76
2021/10/12 04:14:36;;;;;;;21.13;16.70;;;;;;;9.11;94.48;100005.94;5095459;28;20215;-76
2021/10/12 04:17:03;;;;;;;24.55;18.45;;;;;;;9.09;94.80;100015.88;5085077;28;20237;-76
2021/10/12 04:19:30;;;;;;;21.75;17.73;;;;;;;8.94;95.58;100029.06;5086056;28;20251;-76
2021/10/12 04:21:56;;;;;;;26.05;18.30;;;;;;;8.90;96.77;100023.88;5096412;28;20212;-76
2021/10/12 04:24:23;;;;;;;20.42;17.80;;;;;;;9.04;95.75;100020.59;5104353;28;20263;-76
2021/10/12 04:26:49;;;;;;;22.10;18.60;;;;;;;8.84;97.01;100014.31;5092267;28;20278;-76
2021/10/12 04:29:16;;;;;;;23.55;18.88;;;;;;;8.79;98.21;100016.31;5083874;28;20237;-75
2021/10/12 04:31:45;;;;;;;24.13;18.45;;;;;;;8.84;97.24;100013.41;5097513;28;20277;-76
2021/10/12 04:34:11;;;;;;;26.38;19.90;;;;;;;8.77;96.72;100012.81;5105739;28;20258;-76
2021/10/12 04:36:38;;;;;;;22.52;18.48;;;;;;;8.76;97.56;100022.69;5106610;28;20269;-76
2021/10/12 04:39:06;;;;;;;26.13;19.30;;;;;;;8.77;97.37;100005.66;5106397;28;20194;-76
2021/10/12 04:41:33;;;;;;;24.75;19.17;;;;;;;8.81;97.54;100003.69;5106248;28;20190;-76
2021/10/12 04:43:59;;;;;;;25.33;19.02;;;;;;;8.64;98.88;100008.91;5105486;28;20213;-76
2021/10/12 04:46:26;;;;;;;22.45;18.80;;;;;;;8.66;99.43;100007.03;5095592;28;20238;-76
2021/10/12 04:48:54;;;;;;;23.65;17.45;;;;;;;8.81;98.68;100011.75;5099348;28;20207;-76
2021/10/12 04:51:21;;;;;;;27.10;20.85;;;;;;;8.70;98.57;100006.84;5098759;28;20260;-76
2021/10/12 04:53:47;;;;;;;22.17;18.83;;;;;;;8.79;98.87;100005.56;5096833;28;20213;-76
2021/10/12 04:56:14;;;;;;;24.13;19.90;;;;;;;8.70;99.62;100009.53;5085999;28;20643;-76
2021/10/12 04:58:40;;;;;;;28.55;20.17;;;;;;;8.58;100.00;100004.69;5099553;28;20261;-76
2021/10/12 05:01:07;;;;;;;24.15;20.17;;;;;;;8.71;100.00;99999.69;5102759;28;20228;-77
2021/10/12 05:03:34;;;;;;;26.33;20.67;;;;;;;8.63;99.75;99993.75;5091554;28;20289;-76
2021/10/12 05:06:01;;;;;;;26.13;21.13;;;;;;;8.71;99.82;99994.31;5077486;28;20556;-75
2021/10/12 05:08:28;;;;;;;26.15;20.60;;;;;;;8.71;99.92;99994.31;5075664;28;20298;-75
2021/10/12 05:10:55;;;;;;;23.80;19.38;;;;;;;8.84;98.98;99984.78;5088608;28;20666;-74
2021/10/12 05:13:22;;;;;;;25.77;21.40;;;;;;;8.82;99.10;99980.38;5094421;28;20202;-75
2021/10/12 05:15:51;;;;;;;25.10;20.00;;;;;;;8.64;100.00;99984.75;5079618;28;20281;-76
2021/10/12 05:18:20;;;;;;;27.58;20.83;;;;;;;8.75;99.95;99972.63;5087788;28;20225;-77
2021/10/12 05:20:47;;;;;;;24.85;19.70;;;;;;;8.89;98.84;99974.69;5090883;28;20189;-76
2021/10/12 05:23:15;;;;;;;30.27;22.48;;;;;;;8.89;98.70;99982.75;5089055;28;20258;-76
2021/10/12 05:25:44;;;;;;;26.42;21.52;;;;;;;8.94;97.99;99980.72;5095043;28;20195;-78
2021/10/12 05:28:11;;;;;;;31.05;21.75;;;;;;;8.93;98.39;99983.47;5088454;28;20278;-76
2021/10/12 05:30:39;;;;;;;30.92;21.13;;;;;;;8.88;98.51;99985.50;5096168;28;20262;-78
2021/10/12 05:33:07;;;;;;;27.50;20.27;;;;;;;8.73;99.49;99990.63;5087248;28;20682;-75
2021/10/12 05:35:34;;;;;;;28.33;21.02;;;;;;;8.97;98.77;99977.00;5088070;28;20196;-76
2021/10/12 05:38:00;;;;;;;27.63;20.83;;;;;;;9.09;97.59;99971.09;5096081;28;20191;-75
2021/10/12 05:40:28;;;;;;;28.30;21.90;;;;;;;9.08;97.58;99971.16;5099698;28;20532;-77
2021/10/12 05:42:55;;;;;;;28.95;19.38;;;;;;;9.01;97.69;99972.38;5100291;28;20195;-77
2021/10/12 05:45:21;;;;;;;26.90;20.75;;;;;;;9.10;97.28;99977.34;5094951;28;20204;-74
2021/10/12 05:47:48;;;;;;;26.50;20.20;;;;;;;9.00;97.60;99978.69;5092778;28;20211;-76
2021/10/12 05:50:15;;;;;;;31.02;21.02;;;;;;;9.03;98.46;99981.25;5095864;28;20539;-75
2021/10/12 05:52:46;;;;;;;26.50;20.85;;;;;;;9.09;98.20;99981.84;5095293;28;20199;-76
2021/10/12 05:55:15;;;;;;;26.00;20.55;;;;;;;9.31;96.17;99988.88;5094808;28;20206;-76
2021/10/12 05:58:05;;;;;;;28.50;22.15;;;;;;;9.29;95.41;99993.47;5089447;28;20222;-76
2021/10/12 06:00:30;;;;;;;27.63;20.02;;;;;;;9.31;95.61;99994.25;5088786;28;20202;-76
2021/10/12 06:02:57;;;;;;;31.67;23.63;;;;;;;9.27;95.34;100000.72;5103411;28;20289;-75
2021/10/12 06:05:24;;;;;;;29.42;21.70;;;;;;;9.30;96.01;100003.28;5096382;28;20234;-76
2021/10/12 06:07:51;;;;;;;25.20;19.52;;;;;;;9.48;94.44;99994.34;5097913;28;20588;-77
2021/10/12 06:10:17;;;;;;;22.10;18.95;;;;;;;9.40;94.09;99988.47;5085832;28;20208;-75
2021/10/12 06:12:46;;;;;;;29.80;21.85;;;;;;;9.46;94.01;99988.19;5080769;28;20195;-75
2021/10/12 06:15:12;;;;;;;27.70;19.98;;;;;;;9.64;92.79;99988.25;5094826;28;20190;-75
2021/10/12 06:17:39;;;;;;;28.48;18.48;;;;;;;9.65;91.95;99980.09;5084013;28;20206;-76
2021/10/12 06:20:07;;;;;;;29.65;19.30;;;;;;;9.67;91.37;99985.41;5088870;28;20292;-75
2021/10/12 06:22:33;;;;;;;22.35;18.20;;;;;;;9.50;92.90;99983.53;5085508;28;20198;-76
2021/10/12 06:25:00;;;;;;;41.70;19.60;;;;;;;9.53;93.31;99983.38;5074008;28;20391;-75
2021/10/12 06:27:26;;;;;;;23.75;17.92;;;;;;;9.42;94.13;99980.34;5077228;28;20655;-75
2021/10/12 06:29:54;;;;;;;25.60;17.92;;;;;;;9.43;94.68;99979.38;5092913;28;20318;-75
2021/10/12 06:32:21;;;;;;;24.52;19.25;;;;;;;9.45;95.06;99980.19;5076235;28;20198;-77
2021/10/12 06:34:48;;;;;;;25.23;18.52;;;;;;;9.45;94.92;99996.31;5086364;28;20278;-75
2021/10/12 06:37:14;;;;;;;25.40;19.80;;;;;;;9.57;94.50;99993.91;5086663;28;20286;-75
2021/10/12 06:39:41;;;;;;;26.23;20.00;;;;;;;9.66;94.22;99991.75;5088957;28;20287;-76
2021/10/12 06:42:08;;;;;;;24.52;18.70;;;;;;;9.67;93.73;99988.97;5090284;28;20201;-74
2021/10/12 06:44:34;;;;;;;25.17;20.40;;;;;;;9.72;93.18;99977.97;5093900;28;20288;-76
2021/10/12 06:47:02;;;;;;;26.33;20.08;;;;;;;9.74;93.38;99976.94;5087612;28;20540;-76
2021/10/12 06:49:29;;;;;;;29.92;19.60;;;;;;;9.89;92.26;99975.34;5090135;28;20247;-77
2021/10/12 06:51:56;;;;;;;32.10;21.13;;;;;;;9.73;93.13;99979.75;5091220;28;20192;-76
2021/10/12 06:54:22;;;;;;;33.47;21.00;;;;;;;9.78;93.83;99978.56;5089489;28;20298;-75
2021/10/12 06:56:49;;;;;;;30.58;19.92;;;;;;;9.95;93.01;99968.78;5088559;28;20191;-76
2021/10/12 06:59:16;;;;;;;37.38;20.73;;;;;;;9.97;92.60;99972.25;5083151;28;20512;-75
2021/10/12 07:01:43;;;;;;;31.02;20.55;;;;;;;10.06;92.16;99969.13;5086140;28;20784;-76
2021/10/12 07:04:11;;;;;;;36.13;21.55;;;;;;;9.94;92.10;99972.44;5089554;28;20221;-77
2021/10/12 07:06:38;;;;;;;29.85;19.17;;;;;;;10.09;92.37;99971.66;5085271;28;20192;-76
2021/10/12 07:09:04;;;;;;;25.63;19.60;;;;;;;10.21;91.42;99972.88;5085414;28;20552;-75
2021/10/12 07:11:31;;;;;;;26.55;19.98;;;;;;;10.16;91.99;99967.72;5087342;28;20201;-76
2021/10/12 07:13:57;;;;;;;31.08;19.55;;;;;;;10.24;91.57;99967.31;5092666;28;20187;-76
2021/10/12 07:16:26;;;;;;;28.00;19.20;;;;;;;10.55;89.52;99955.00;5093091;28;20207;-76
2021/10/12 07:18:53;;;;;;;31.38;19.63;;;;;;;10.51;88.82;99953.41;5093216;28;20176;-76
2021/10/12 07:21:21;;;;;;;25.30;18.92;;;;;;;10.53;88.69;99949.69;5093852;28;20191;-74
2021/10/12 07:23:48;;;;;;;37.90;20.63;;;;;;;10.64;88.04;99958.09;5094334;28;20277;-76
2021/10/12 07:26:14;;;;;;;35.35;20.50;;;;;;;10.73;88.15;99950.47;5092197;28;20685;-76
2021/10/12 07:28:41;;;;;;;28.50;19.38;;;;;;;10.72;87.70;99946.03;5093807;28;20295;-77
2021/10/12 07:31:09;;;;;;;35.47;20.73;;;;;;;10.79;88.05;99948.34;5091966;28;20227;-76
2021/10/12 07:33:36;;;;;;;28.77;17.73;;;;;;;10.99;87.38;99946.38;5090909;28;20199;-76
2021/10/12 07:36:04;;;;;;;21.70;16.88;;;;;;;11.04;87.06;99945.19;5080054;28;20192;-77
2021/10/12 07:38:32;;;;;;;25.35;18.75;;;;;;;11.19;86.94;99939.88;5093860;28;20259;-77
2021/10/12 07:40:59;;;;;;;20.10;16.60;;;;;;;11.27;86.56;99940.34;5090864;28;20443;-76
2021/10/12 07:43:25;;;;;;;22.67;15.63;;;;;;;11.43;85.21;99945.75;5086442;28;20567;-76
2021/10/12 07:45:52;;;;;;;24.02;17.25;;;;;;;11.20;86.16;99937.13;5089970;28;20547;-75
2021/10/12 07:48:20;;;;;;;24.40;17.52;;;;;;;11.16;87.30;99938.25;5077375;28;20264;-77
2021/10/12 07:50:47;;;;;;;27.77;17.00;;;;;;;10.98;88.60;99936.56;5083361;28;20234;-76
2021/10/12 07:53:14;;;;;;;29.65;17.80;;;;;;;11.17;88.09;99936.41;5093441;28;20210;-76
2021/10/12 07:55:44;;;;;;;18.88;15.10;;;;;;;11.27;87.63;99940.34;5092635;28;20659;-76
2021/10/12 07:58:11;;;;;;;23.58;14.80;;;;;;;11.26;88.10;99936.78;5092426;28;20224;-76
2021/10/12 08:00:37;;;;;;;16.73;14.20;;;;;;;11.38;87.58;99935.22;5092517;28;20207;-75
2021/10/12 08:03:05;;;;;;;28.50;18.80;;;;;;;11.29;90.21;99927.66;5091143;28;20207;-76
2021/10/12 08:05:32;;;;;;;23.00;13.55;;;;;;;11.38;90.33;99928.97;5087032;28;20196;-77
2021/10/12 08:07:59;;;;;;;20.98;12.70;;;;;;;11.33;91.58;99939.13;5088890;28;20598;-77
2021/10/12 08:10:26;;;;;;;16.75;11.65;;;;;;;11.49;90.54;99940.03;5089685;28;20247;-77
2021/10/12 08:12:57;;;;;;;15.48;11.00;;;;;;;11.26;92.15;99943.97;5093569;28;20222;-77
2021/10/12 08:15:24;;;;;;;14.93;11.38;;;;;;;11.33;92.45;99940.00;5091749;28;20607;-76
2021/10/12 08:17:50;;;;;;;20.45;12.43;;;;;;;11.31;91.92;99931.13;5088784;28;20224;-77
2021/10/12 08:20:17;;;;;;;20.85;12.40;;;;;;;11.38;91.41;99920.88;5090557;28;20199;-76
2021/10/12 08:22:44;;;;;;;17.33;12.82;;;;;;;11.62;90.84;99926.69;5091686;28;20205;-75
2021/10/12 08:25:11;;;;;;;17.55;11.18;;;;;;;11.76;88.13;99924.09;5091266;28;20184;-77
2021/10/12 08:27:38;;;;;;;16.90;11.10;;;;;;;11.75;87.71;99929.56;5085745;28;20200;-76
2021/10/12 08:30:09;;;;;;;19.55;10.43;;;;;;;11.42;88.53;99928.72;5071470;28;20243;-77
2021/10/12 08:32:35;;;;;;;13.98;10.48;;;;;;;11.53;88.69;99914.59;5075910;28;20196;-76
2021/10/12 08:35:02;;;;;;;16.35;10.52;;;;;;;11.50;88.99;99911.22;5075201;28;20283;-77
2021/10/12 08:37:29;;;;;;;18.35;11.13;;;;;;;11.75;88.98;99919.63;5079371;28;20207;-77
2021/10/12 08:39:55;;;;;;;17.60;11.18;;;;;;;11.92;88.67;99920.50;5076942;28;20194;-77
2021/10/12 08:42:27;;;;;;;21.52;11.88;;;;;;;12.27;85.95;99913.88;5091760;28;20275;-77
2021/10/12 08:44:55;;;;;;;14.98;10.45;;;;;;;12.53;82.91;99906.06;5091100;28;20227;-77
2021/10/12 08:47:24;;;;;;;20.77;10.43;;;;;;;12.70;81.72;99896.91;5083074;28;20184;-75
2021/10/12 08:49:52;;;;;;;14.88;10.45;;;;;;;12.82;80.88;99903.34;5090583;28;20251;-76
2021/10/12 08:52:20;;;;;;;15.10;10.23;;;;;;;12.51;81.21;99905.28;5090647;28;20210;-77
2021/10/12 08:54:47;;;;;;;14.20;9.80;;;;;;;12.46;80.75;99908.25;5079885;28;20291;-77
2021/10/12 08:57:13;;;;;;;17.13;11.07;;;;;;;12.40;81.47;99900.53;5089783;28;20188;-77
2021/10/12 08:59:40;;;;;;;18.33;10.77;;;;;;;12.64;80.97;99906.25;5090099;28;20206;-76
2021/10/12 09:02:12;;;;;;;16.40;10.00;;;;;;;12.69;79.19;99906.84;5077068;28;20184;-77
2021/10/12 09:04:42;;;;;;;12.93;8.95;;;;;;;12.73;78.37;99899.44;5077760;28;20188;-77
2021/10/12 09:07:27;;;;;;;18.23;9.57;;;;;;;12.94;77.32;99897.19;5085267;28;20376;-78
2021/10/12 09:09:56;;;;;;;16.42;8.40;;;;;;;13.33;74.78;99896.50;5089539;28;20217;-77
2021/10/12 09:12:41;;;;;;;19.92;9.63;;;;;;;13.18;75.65;99894.75;5094978;28;20211;-78
2021/10/12 09:15:09;;;;;;;12.75;8.35;;;;;;;13.42;74.43;99889.63;5093815;28;20278;-77
2021/10/12 09:17:38;;;;;;;10.00;7.38;;;;;;;13.23;72.68;99879.13;5083042;28;20196;-77
2021/10/12 09:20:32;;;;;;;14.50;8.02;;;;;;;13.20;72.80;99884.72;5074530;28;20203;-77
2021/10/12 09:23:08;;;;;;;16.90;8.23;;;;;;;12.74;73.87;99876.84;5074451;28;20196;-76
2021/10/12 09:25:36;;;;;;;7.88;7.00;;;;;;;12.63;75.28;99874.78;5091209;28;20638;-76
2021/10/12 09:28:03;;;;;;;10.20;7.07;;;;;;;12.93;74.14;99874.72;5089818;28;20196;-76
2021/10/12 09:30:31;;;;;;;13.10;8.40;;;;;;;13.32;72.45;99875.84;5094632;28;20324;-76
2021/10/12 09:33:01;;;;;;;13.30;7.00;;;;;;;13.13;72.46;99870.72;5078060;28;20185;-76
2021/10/12 09:35:28;;;;;;;12.82;6.15;;;;;;;13.19;72.07;99872.16;5073897;28;20287;-76
2021/10/12 09:38:08;;;;;;;7.70;5.95;;;;;;;13.23;70.89;99867.41;5078979;28;20591;-76
2021/10/12 09:40:36;;;;;;;12.82;6.70;;;;;;;13.03;72.68;99860.63;5080911;28;20264;-78
2021/10/12 09:43:04;;;;;;;10.60;6.18;;;;;;;13.25;71.46;99860.06;5085212;28;20599;-76
2021/10/12 09:45:35;;;;;;;7.75;4.85;;;;;;;13.29;70.20;99856.25;5074680;28;20211;-77
2021/10/12 09:48:02;;;;;;;14.18;6.35;;;;;;;13.61;68.47;99858.66;5087592;28;20638;-76
2021/10/12 09:50:32;;;;;;;11.90;6.95;;;;;;;13.43;67.70;99863.44;5097072;28;20218;-77
2021/10/12 09:52:58;;;;;;;12.73;6.43;;;;;;;13.26;68.74;99848.31;5100569;28;20233;-76
2021/10/12 09:55:36;;;;;;;11.32;5.93;;;;;;;13.27;68.95;99847.31;5091696;28;20197;-76
2021/10/12 09:58:04;;;;;;;9.63;5.90;;;;;;;13.68;67.60;99847.34;5093690;28;20188;-76
2021/10/12 10:00:30;;;;;;;15.80;6.43;;;;;;;14.09;65.85;99834.69;5081284;28;20223;-76
2021/10/12 10:02:58;;;;;;;11.75;8.15;;;;;;;14.28;65.33;99835.09;5093155;28;20192;-76
2021/10/12 10:05:24;;;;;;;8.65;6.20;;;;;;;14.01;65.37;99834.31;5087648;28;20285;-76
2021/10/12 10:07:53;;;;;;;10.00;6.45;;;;;;;13.96;65.68;99834.63;5083760;28;20244;-77
2021/10/12 10:10:20;;;;;;;15.55;9.90;;;;;;;14.37;64.95;99828.19;5109920;28;20797;-77
2021/10/12 10:12:49;;;;;;;9.30;6.05;;;;;;;14.61;63.46;99831.06;5113836;28;20205;-76
2021/10/12 10:15:15;;;;;;;10.93;5.50;;;;;;;14.62;63.09;99818.34;5084323;28;20194;-76
2021/10/12 10:17:42;;;;;;;10.60;6.32;;;;;;;14.28;64.40;99827.00;5073244;28;20188;-75
2021/10/12 10:20:11;;;;;;;9.88;5.50;;;;;;;13.78;66.29;99823.22;5073297;28;20194;-77
2021/10/12 10:22:41;;;;;;;9.18;5.15;;;;;;;14.03;65.57;99821.56;5072957;28;20525;-76
2021/10/12 10:25:29;;;;;;;9.88;6.60;;;;;;;14.04;65.63;99820.56;5073909;28;20588;-76
2021/10/12 10:27:58;;;;;;;9.75;5.55;;;;;;;14.11;65.35;99819.16;5085238;28;20224;-77
2021/10/12 10:30:30;;;;;;;9.63;5.35;;;;;;;13.71;66.71;99821.91;5086592;28;20724;-76
2021/10/12 10:32:59;;;;;;;12.45;6.10;;;;;;;13.56;67.73;99813.84;5091512;28;20202;-76
2021/10/12 10:35:38;;;;;;;13.20;5.90;;;;;;;13.32;68.80;99824.47;5089781;28;20230;-76
2021/10/12 10:38:27;;;;;;;8.65;4.57;;;;;;;13.56;68.07;99815.69;5089782;28;20200;-76
2021/10/12 10:41:35;;;;;;;6.35;4.00;;;;;;;13.68;67.35;99809.47;5087931;28;20196;-76
2021/10/12 10:44:05;;;;;;;8.75;4.90;;;;;;;14.35;65.17;99793.06;5091156;28;20194;-76
2021/10/12 10:46:39;;;;;;;12.50;5.00;;;;;;;14.70;64.28;99799.72;5092252;28;20263;-76
2021/10/12 10:49:06;;;;;;;5.40;3.97;;;;;;;14.95;62.18;99796.09;5089558;28;20682;-77
2021/10/12 10:51:51;;;;;;;5.40;4.45;;;;;;;14.63;62.73;99788.44;5081551;28;20201;-76
2021/10/12 10:55:02;;;;;;;11.43;4.65;;;;;;;14.17;63.70;99783.53;5083974;28;20214;-76
2021/10/12 10:57:29;;;;;;;10.45;4.20;;;;;;;14.44;63.20;99780.72;5072635;28;20217;-75
2021/10/12 11:00:26;;;;;;;10.25;4.10;;;;;;;14.27;63.80;99771.09;5080538;28;20597;-76
2021/10/12 11:02:54;;;;;;;7.82;5.07;;;;;;;14.36;63.24;99773.16;5093608;28;20308;-75
2021/10/12 11:05:47;;;;;;;6.00;4.75;;;;;;;14.42;63.61;99776.41;5093252;28;20196;-76
2021/10/12 11:08:18;;;;;;;9.48;5.43;;;;;;;14.35;64.20;99776.81;5093922;28;20305;-77
2021/10/12 11:10:47;;;;;;;7.95;4.35;;;;;;;14.59;63.43;99773.38;5085447;28;20274;-76
2021/10/12 11:13:26;;;;;;;5.60;3.88;;;;;;;14.71;63.21;99777.91;5088931;28;20194;-74
2021/10/12 11:15:57;;;;;;;7.03;4.70;;;;;;;14.47;64.05;99779.63;5092614;28;20296;-75
2021/10/12 11:18:24;;;;;;;8.50;5.70;;;;;;;14.02;65.57;99777.38;5092251;28;20185;-75
2021/10/12 11:20:53;;;;;;;11.40;5.45;;;;;;;13.86;65.96;99768.56;5092018;28;20273;-75
2021/10/12 11:23:26;;;;;;;15.07;5.03;;;;;;;13.59;66.50;99765.91;5092276;28;20192;-75
2021/10/12 11:25:58;;;;;;;9.18;4.03;;;;;;;13.52;66.30;99766.34;5092742;28;20257;-76